CheckWX is a tool to help pilots better visualize weather data.  It is not intended as a substitute for an official pre-flight weather briefing.

09:08:14 UTC

EHWO METAR
Woensdrecht Air Base Airport
Bergen Op Zoom, The Netherlands
Current

13 mins ago

EHWO 210855Z AUTO 09008KT 050V140 9999 NCD 16/05 Q1018 BLU
Observed
Sep-21 @ 08:55 UTC
Wind
  • 090° at 8 KTS
Visibility
10,000+ meters
Flight Rules
VFR
Cloud Levels
  • Clear skies
Temperature
16°C / 61°F
Dewpoint
C / 41°F
Humidity
48%
Altimeter
30.06" Hg
Pressure
1017.92 hPa
Previous

43 mins ago

EHWO 210825Z AUTO 09007KT 060V130 9999 NCD 15/05 Q1018 BLU
Observed
Sep-21 @ 08:25 UTC
Wind
  • 090° at 7 KTS
Visibility
10,000+ meters
Flight Rules
VFR
Cloud Levels
  • Clear skies
Temperature
15°C / 59°F
Dewpoint
C / 41°F
Humidity
51%
Altimeter
30.06" Hg
Pressure
1017.92 hPa
Previous

1 hour ago

EHWO 210755Z AUTO 09007KT 070V130 9999 NCD 13/05 Q1018 BLU
Observed
Sep-21 @ 07:55 UTC
Wind
  • 090° at 7 KTS
Visibility
10,000+ meters
Flight Rules
VFR
Cloud Levels
  • Clear skies
Temperature
13°C / 55°F
Dewpoint
C / 41°F
Humidity
59%
Altimeter
30.06" Hg
Pressure
1017.92 hPa